Time,TemperatureF,DewpointF,PressureIn,WindDirection,WindDirectionDegrees,WindSpeedMPH,WindSpeedGustMPH,Humidity,HourlyPrecipIn,Conditions,Clouds,dailyrainin,SoftwareType,DateUTC
2013-03-08 00:11:00,36.4,23.0,30.06,North,355,6.0,-999.0,58,-99.99,,,0.00,weatherlink.com 1.10,2013-03-08 05:11:00,
2013-03-08 00:26:00,35.9,22.0,30.07,NW,325,9.0,-999.0,58,-99.99,,,0.00,weatherlink.com 1.10,2013-03-08 05:26:00,
2013-03-08 00:41:00,35.8,23.0,30.07,North,11,11.0,-999.0,59,-99.99,,,0.00,weatherlink.com 1.10,2013-03-08 05:41:00,
2013-03-08 00:56:00,35.5,22.0,30.07,NNW,337,13.0,-999.0,59,-99.99,,,0.00,weatherlink.com 1.10,2013-03-08 05:56:00,
2013-03-08 01:11:00,35.4,22.0,30.08,NNW,341,16.0,-999.0,59,-99.99,,,0.00,weatherlink.com 1.10,2013-03-08 06:11:00,
2013-03-08 01:26:00,35.0,22.0,30.08,NNW,330,6.0,-999.0,60,-99.99,,,0.00,weatherlink.com 1.10,2013-03-08 06:26:00,
2013-03-08 01:41:00,34.6,23.0,30.08,NNW,331,8.0,-999.0,62,-99.99,,,0.00,weatherlink.com 1.10,2013-03-08 06:41:00,
2013-03-08 01:56:00,34.1,23.0,30.07,NNW,348,9.0,-999.0,63,-99.99,,,0.00,weatherlink.com 1.10,2013-03-08 06:56:00,
2013-03-08 02:11:00,33.9,22.0,30.07,NNW,342,9.0,-999.0,62,-99.99,,,0.00,weatherlink.com 1.10,2013-03-08 07:11:00,
2013-03-08 02:26:00,33.6,22.0,30.07,NNW,338,9.0,-999.0,62,-99.99,,,0.00,weatherlink.com 1.10,2013-03-08 07:26:00,
2013-03-08 02:41:00,33.4,22.0,30.07,NNW,334,13.0,-999.0,62,-99.99,,,0.00,weatherlink.com 1.10,2013-03-08 07:41:00,
2013-03-08 02:56:00,33.0,22.0,30.06,NW,306,9.0,-999.0,63,-99.99,,,0.00,weatherlink.com 1.10,2013-03-08 07:56:00,
2013-03-08 03:11:00,32.9,21.0,30.06,NNW,336,9.0,-999.0,63,-99.99,,,0.00,weatherlink.com 1.10,2013-03-08 08:11:00,
2013-03-08 03:26:00,32.7,22.0,30.06,NW,326,12.0,-999.0,64,-99.99,,,0.00,weatherlink.com 1.10,2013-03-08 08:26:00,
2013-03-08 03:41:00,32.6,22.0,30.05,NNW,331,14.0,-999.0,64,-99.99,,,0.00,weatherlink.com 1.10,2013-03-08 08:41:00,
2013-03-08 03:56:00,32.5,21.0,30.05,NNW,345,10.0,-999.0,64,-99.99,,,0.00,weatherlink.com 1.10,2013-03-08 08:56:00,
2013-03-08 04:11:00,32.4,21.0,30.05,NNW,327,7.0,-999.0,64,-99.99,,,0.00,weatherlink.com 1.10,2013-03-08 09:11:00,
2013-03-08 04:26:00,32.2,22.0,30.05,North,360,10.0,-999.0,65,-99.99,,,0.00,weatherlink.com 1.10,2013-03-08 09:26:00,
2013-03-08 04:41:00,32.2,21.0,30.05,NNW,332,7.0,-999.0,64,-99.99,,,0.00,weatherlink.com 1.10,2013-03-08 09:41:00,
2013-03-08 04:56:00,32.1,21.0,30.05,NNW,330,12.0,-999.0,65,-99.99,,,0.00,weatherlink.com 1.10,2013-03-08 09:56:00,
2013-03-08 05:11:00,31.9,21.0,30.05,North,355,10.0,-999.0,65,-99.99,,,0.00,weatherlink.com 1.10,2013-03-08 10:11:00,
2013-03-08 05:26:00,32.2,22.0,30.06,NNW,340,14.0,-999.0,65,-99.99,,,0.00,weatherlink.com 1.10,2013-03-08 10:26:00,
2013-03-08 05:41:00,32.3,22.0,30.06,NNW,337,6.0,-999.0,65,-99.99,,,0.00,weatherlink.com 1.10,2013-03-08 10:41:00,
2013-03-08 05:56:00,32.4,22.0,30.06,NW,315,11.0,-999.0,65,-99.99,,,0.00,weatherlink.com 1.10,2013-03-08 10:56:00,
2013-03-08 06:11:00,32.7,22.0,30.06,NNW,348,9.0,-999.0,64,-99.99,,,0.00,weatherlink.com 1.10,2013-03-08 11:11:00,
2013-03-08 06:26:00,32.9,22.0,30.06,North,9,16.0,-999.0,64,-99.99,,,0.00,weatherlink.com 1.10,2013-03-08 11:26:00,
2013-03-08 06:41:00,33.0,22.0,30.07,North,349,8.0,-999.0,64,-99.99,,,0.00,weatherlink.com 1.10,2013-03-08 11:41:00,
2013-03-08 06:56:00,33.0,22.0,30.07,NNW,346,6.0,-999.0,65,-99.99,,,0.00,weatherlink.com 1.10,2013-03-08 11:56:00,
2013-03-08 07:11:00,32.8,23.0,30.07,NNW,344,11.0,-999.0,66,-99.99,,,0.00,weatherlink.com 1.10,2013-03-08 12:11:00,
2013-03-08 07:26:00,32.4,23.0,30.08,NW,323,20.0,-999.0,68,-99.99,,,0.00,weatherlink.com 1.10,2013-03-08 12:26:00,
2013-03-08 07:41:00,32.3,23.0,30.08,NNW,332,16.0,-999.0,69,-99.99,,,0.00,weatherlink.com 1.10,2013-03-08 12:41:00,
2013-03-08 07:56:00,32.4,24.0,30.09,NW,325,17.0,-999.0,70,-99.99,,,0.00,weatherlink.com 1.10,2013-03-08 12:56:00,
2013-03-08 08:11:00,32.0,24.0,30.09,NW,311,17.0,-999.0,73,-99.99,,,0.00,weatherlink.com 1.10,2013-03-08 13:11:00,
2013-03-08 08:26:00,31.8,25.0,30.09,NW,322,11.0,-999.0,76,-99.99,,,0.00,weatherlink.com 1.10,2013-03-08 13:26:00,
2013-03-08 08:41:00,31.5,26.0,30.09,NNW,342,9.0,-999.0,79,-99.99,,,0.00,weatherlink.com 1.10,2013-03-08 13:41:00,
2013-03-08 08:56:00,32.1,25.0,30.08,NNW,329,12.0,-999.0,76,-99.99,,,0.00,weatherlink.com 1.10,2013-03-08 13:56:00,
2013-03-08 09:11:00,33.1,25.0,30.08,NNW,348,11.0,-999.0,72,-99.99,,,0.00,weatherlink.com 1.10,2013-03-08 14:11:00,
2013-03-08 09:26:00,34.2,25.0,30.08,NNW,341,15.0,-999.0,69,-99.99,,,0.00,weatherlink.com 1.10,2013-03-08 14:26:00,
2013-03-08 09:41:00,34.6,24.0,30.07,North,350,13.0,-999.0,66,-99.99,,,0.00,weatherlink.com 1.10,2013-03-08 14:41:00,
2013-03-08 09:56:00,35.0,25.0,30.08,North,360,17.0,-999.0,66,-99.99,,,0.00,weatherlink.com 1.10,2013-03-08 14:56:00,
2013-03-08 10:11:00,35.4,24.0,30.08,North,350,30.0,-999.0,64,-99.99,,,0.00,weatherlink.com 1.10,2013-03-08 15:11:00,
2013-03-08 10:26:00,35.6,24.0,30.08,NW,326,16.0,-999.0,63,-99.99,,,0.00,weatherlink.com 1.10,2013-03-08 15:26:00,
2013-03-08 10:56:00,37.3,24.0,30.09,NW,323,15.0,-999.0,60,-99.99,,,0.00,weatherlink.com 1.10,2013-03-08 15:56:00,
2013-03-08 11:11:00,37.2,24.0,30.09,NW,316,22.0,-999.0,59,-99.99,,,0.00,weatherlink.com 1.10,2013-03-08 16:11:00,
2013-03-08 11:26:00,38.0,25.0,30.08,North,355,15.0,-999.0,59,-99.99,,,0.00,weatherlink.com 1.10,2013-03-08 16:26:00,
2013-03-08 11:41:00,38.8,25.0,30.09,NNW,336,19.0,-999.0,58,-99.99,,,0.00,weatherlink.com 1.10,2013-03-08 16:41:00,
2013-03-08 11:56:00,39.2,25.0,30.09,North,11,21.0,-999.0,58,-99.99,,,0.00,weatherlink.com 1.10,2013-03-08 16:56:00,
2013-03-08 12:11:00,39.2,25.0,30.09,NNW,341,12.0,-999.0,58,-99.99,,,0.00,weatherlink.com 1.10,2013-03-08 17:11:00,
2013-03-08 12:26:00,39.8,26.0,30.08,NNW,327,11.0,-999.0,58,-99.99,,,0.00,weatherlink.com 1.10,2013-03-08 17:26:00,
2013-03-08 12:41:00,39.9,26.0,30.08,NNW,341,14.0,-999.0,59,-99.99,,,0.00,weatherlink.com 1.10,2013-03-08 17:41:00,
2013-03-08 12:56:00,40.5,27.0,30.07,North,350,15.0,-999.0,58,-99.99,,,0.00,weatherlink.com 1.10,2013-03-08 17:56:00,
2013-03-08 13:11:00,40.5,26.0,30.07,NW,321,13.0,-999.0,57,-99.99,,,0.00,weatherlink.com 1.10,2013-03-08 18:11:00,
2013-03-08 13:26:00,40.6,27.0,30.07,North,355,18.0,-999.0,58,-99.99,,,0.00,weatherlink.com 1.10,2013-03-08 18:26:00,
2013-03-08 13:41:00,40.6,27.0,30.07,NNW,341,19.0,-999.0,58,-99.99,,,0.00,weatherlink.com 1.10,2013-03-08 18:41:00,
2013-03-08 13:56:00,40.8,27.0,30.06,NNW,339,18.0,-999.0,58,-99.99,,,0.00,weatherlink.com 1.10,2013-03-08 18:56:00,
2013-03-08 14:11:00,41.5,28.0,30.07,NNW,348,16.0,-999.0,58,-99.99,,,0.00,weatherlink.com 1.10,2013-03-08 19:11:00,
2013-03-08 14:26:00,41.8,27.0,30.06,NNW,346,13.0,-999.0,57,-99.99,,,0.00,weatherlink.com 1.10,2013-03-08 19:26:00,
2013-03-08 14:41:00,42.0,28.0,30.07,NNW,337,11.0,-999.0,57,-99.99,,,0.00,weatherlink.com 1.10,2013-03-08 19:41:00,
2013-03-08 14:56:00,42.2,28.0,30.07,NNW,334,11.0,-999.0,58,-99.99,,,0.00,weatherlink.com 1.10,2013-03-08 19:56:00,
2013-03-08 15:11:00,42.4,28.0,30.07,NNW,342,20.0,-999.0,57,-99.99,,,0.00,weatherlink.com 1.10,2013-03-08 20:11:00,
2013-03-08 15:26:00,42.4,28.0,30.08,NNW,331,15.0,-999.0,57,-99.99,,,0.00,weatherlink.com 1.10,2013-03-08 20:26:00,
2013-03-08 15:41:00,42.4,28.0,30.08,NNW,344,21.0,-999.0,57,-99.99,,,0.00,weatherlink.com 1.10,2013-03-08 20:41:00,
2013-03-08 15:56:00,42.5,28.0,30.09,North,10,15.0,-999.0,57,-99.99,,,0.00,weatherlink.com 1.10,2013-03-08 20:56:00,
2013-03-08 16:11:00,42.5,28.0,30.09,NNW,331,13.0,-999.0,57,-99.99,,,0.00,weatherlink.com 1.10,2013-03-08 21:11:00,
2013-03-08 16:26:00,42.6,28.0,30.10,NNW,343,14.0,-999.0,57,-99.99,,,0.00,weatherlink.com 1.10,2013-03-08 21:26:00,
2013-03-08 16:41:00,42.6,28.0,30.10,NNW,344,12.0,-999.0,57,-99.99,,,0.00,weatherlink.com 1.10,2013-03-08 21:41:00,
2013-03-08 16:56:00,42.6,29.0,30.11,NW,317,14.0,-999.0,58,-99.99,,,0.00,weatherlink.com 1.10,2013-03-08 21:56:00,
2013-03-08 17:11:00,42.5,28.0,30.12,NNW,340,16.0,-999.0,58,-99.99,,,0.00,weatherlink.com 1.10,2013-03-08 22:11:00,
2013-03-08 17:26:00,42.5,28.0,30.13,NNW,330,15.0,-999.0,57,-99.99,,,0.00,weatherlink.com 1.10,2013-03-08 22:26:00,
2013-03-08 17:41:00,42.5,28.0,30.14,NNW,337,10.0,-999.0,57,-99.99,,,0.00,weatherlink.com 1.10,2013-03-08 22:41:00,
2013-03-08 17:56:00,42.5,28.0,30.14,NNW,339,12.0,-999.0,57,-99.99,,,0.00,weatherlink.com 1.10,2013-03-08 22:56:00,
2013-03-08 18:11:00,42.4,28.0,30.14,NNW,327,13.0,-999.0,57,-99.99,,,0.00,weatherlink.com 1.10,2013-03-08 23:11:00,
2013-03-08 18:25:00,42.3,28.0,30.14,NNW,331,12.0,-999.0,57,-99.99,,,0.00,weatherlink.com 1.10,2013-03-08 23:25:00,
2013-03-08 18:40:00,42.1,28.0,30.15,NW,325,10.0,-999.0,57,-99.99,,,0.00,weatherlink.com 1.10,2013-03-08 23:40:00,
2013-03-08 18:55:00,42.0,28.0,30.16,NNW,338,7.0,-999.0,57,-99.99,,,0.00,weatherlink.com 1.10,2013-03-08 23:55:00,
2013-03-08 19:10:00,41.6,28.0,30.17,NNW,338,16.0,-999.0,58,-99.99,,,0.00,weatherlink.com 1.10,2013-03-09 00:10:00,
2013-03-08 19:25:00,41.5,27.0,30.17,NNW,342,12.0,-999.0,57,-99.99,,,0.00,weatherlink.com 1.10,2013-03-09 00:25:00,
2013-03-08 19:40:00,41.4,27.0,30.17,NNW,331,13.0,-999.0,57,-99.99,,,0.00,weatherlink.com 1.10,2013-03-09 00:40:00,
2013-03-08 19:55:00,40.8,26.0,30.18,NNW,327,11.0,-999.0,57,-99.99,,,0.00,weatherlink.com 1.10,2013-03-09 00:55:00,
2013-03-08 20:10:00,40.5,26.0,30.18,NNW,329,16.0,-999.0,57,-99.99,,,0.00,weatherlink.com 1.10,2013-03-09 01:10:00,
2013-03-08 20:25:00,40.3,26.0,30.19,NW,319,17.0,-999.0,57,-99.99,,,0.00,weatherlink.com 1.10,2013-03-09 01:25:00,
2013-03-08 20:40:00,40.2,26.0,30.19,NNW,346,14.0,-999.0,57,-99.99,,,0.00,weatherlink.com 1.10,2013-03-09 01:40:00,
2013-03-08 20:55:00,39.9,26.0,30.20,North,355,7.0,-999.0,57,-99.99,,,0.00,weatherlink.com 1.10,2013-03-09 01:55:00,
2013-03-08 21:10:00,39.9,25.0,30.20,North,360,11.0,-999.0,56,-99.99,,,0.00,weatherlink.com 1.10,2013-03-09 02:10:00,
2013-03-08 21:25:00,39.8,25.0,30.20,NNW,330,10.0,-999.0,56,-99.99,,,0.00,weatherlink.com 1.10,2013-03-09 02:25:00,
2013-03-08 21:40:00,39.5,25.0,30.21,NNE,28,10.0,-999.0,56,-99.99,,,0.00,weatherlink.com 1.10,2013-03-09 02:40:00,
2013-03-08 21:55:00,39.2,25.0,30.21,NW,322,10.0,-999.0,56,-99.99,,,0.00,weatherlink.com 1.10,2013-03-09 02:55:00,
2013-03-08 22:10:00,38.8,25.0,30.22,NNW,344,8.0,-999.0,57,-99.99,,,0.00,weatherlink.com 1.10,2013-03-09 03:10:00,
2013-03-08 22:25:00,38.4,24.0,30.21,NNW,340,11.0,-999.0,57,-99.99,,,0.00,weatherlink.com 1.10,2013-03-09 03:25:00,
2013-03-08 22:40:00,38.2,24.0,30.22,North,350,7.0,-999.0,56,-99.99,,,0.00,weatherlink.com 1.10,2013-03-09 03:40:00,
2013-03-08 22:55:00,37.9,24.0,30.22,North,355,4.0,-999.0,57,-99.99,,,0.00,weatherlink.com 1.10,2013-03-09 03:55:00,
2013-03-08 23:10:00,37.6,23.0,30.22,NNW,343,8.0,-999.0,57,-99.99,,,0.00,weatherlink.com 1.10,2013-03-09 04:10:00,
2013-03-08 23:25:00,37.2,24.0,30.22,NNW,340,8.0,-999.0,59,-99.99,,,0.00,weatherlink.com 1.10,2013-03-09 04:25:00,
2013-03-08 23:40:00,36.8,24.0,30.22,North,5,7.0,-999.0,59,-99.99,,,0.00,weatherlink.com 1.10,2013-03-09 04:40:00,
2013-03-08 23:55:00,36.7,23.0,30.22,North,9,9.0,-999.0,59,-99.99,,,0.00,weatherlink.com 1.10,2013-03-09 04:55:00,